首页
METAR-TAF:

METAR-TAF

机场 :

Revelstoke, 不列颠哥伦比亚, 加拿大

纬度: 50-58N, 经度: 118-11W, 海拔: 443米

当前天气观测

该预报发布于33分钟前的20:02 UTC
风速5节,风向北转西北,在西北东北之间变化
温度 2°C
湿度 93%
气压 1015 hPa
能見度: 14.5公里
阴天层高于800英尺
小雨

METAR: CYRV 172002Z AUTO 33005KT 320V050 9SM -RA OVC008 02/01 A2998 RMK PRESFR SLP170

时间: 12:35 (20:35 UTC)


TAF: 丢失

超过4000个机场的气象观测和天气预报(METAR&TAF报告)。

可查询的气象台以黄色和红色小点在地图上表示。

将鼠标移到小点上方,可查看气象台名称。

然后点击查看天气观测和预报。

如需切换地图:点击带黑十字的绿色按钮放大地图;点击带横线的绿色按钮缩小地图;或者点击绿色箭头查看邻近地区的地图。


METAR-TAF: